sensor_id;sensor_type;location;lat;lon;timestamp;temperature;humidity
4429;DHT22;2227;47.810;8.810;2022-12-07T04:47:42;3.40;99.90
4429;DHT22;2227;47.810;8.810;2022-12-07T04:50:09;3.40;99.90
4429;DHT22;2227;47.810;8.810;2022-12-07T04:52:36;3.50;99.90
4429;DHT22;2227;47.810;8.810;2022-12-07T04:55:03;3.40;99.90
4429;DHT22;2227;47.810;8.810;2022-12-07T04:57:30;3.40;99.90
4429;DHT22;2227;47.810;8.810;2022-12-07T04:59:56;3.40;99.90
4429;DHT22;2227;47.810;8.810;2022-12-07T05:02:23;3.40;99.90
4429;DHT22;2227;47.810;8.810;2022-12-07T05:04:49;3.40;99.90
4429;DHT22;2227;47.810;8.810;2022-12-07T05:07:16;3.40;99.90
4429;DHT22;2227;47.810;8.810;2022-12-07T05:09:43;3.40;99.90
4429;DHT22;2227;47.810;8.810;2022-12-07T05:12:09;3.40;99.90
4429;DHT22;2227;47.810;8.810;2022-12-07T05:14:36;3.40;99.90
4429;DHT22;2227;47.810;8.810;2022-12-07T05:17:03;3.40;99.90
4429;DHT22;2227;47.810;8.810;2022-12-07T05:19:30;3.50;99.90
4429;DHT22;2227;47.810;8.810;2022-12-07T05:21:57;3.50;99.90
4429;DHT22;2227;47.810;8.810;2022-12-07T05:24:23;3.60;99.90
4429;DHT22;2227;47.810;8.810;2022-12-07T05:26:50;3.60;99.90
4429;DHT22;2227;47.810;8.810;2022-12-07T05:29:17;3.60;99.90
4429;DHT22;2227;47.810;8.810;2022-12-07T05:31:44;3.50;99.90
4429;DHT22;2227;47.810;8.810;2022-12-07T05:34:11;3.50;99.90
4429;DHT22;2227;47.810;8.810;2022-12-07T05:36:38;3.50;99.90
4429;DHT22;2227;47.810;8.810;2022-12-07T05:39:05;3.50;99.90
4429;DHT22;2227;47.810;8.810;2022-12-07T05:41:32;3.50;99.90
4429;DHT22;2227;47.810;8.810;2022-12-07T05:44:18;3.50;99.90
4429;DHT22;2227;47.810;8.810;2022-12-07T05:46:44;3.50;99.90
4429;DHT22;2227;47.810;8.810;2022-12-07T05:49:11;3.50;99.90
4429;DHT22;2227;47.810;8.810;2022-12-07T05:51:38;3.60;99.90
4429;DHT22;2227;47.810;8.810;2022-12-07T05:54:04;3.50;99.90
4429;DHT22;2227;47.810;8.810;2022-12-07T05:56:31;3.50;99.90
4429;DHT22;2227;47.810;8.810;2022-12-07T05:58:58;3.60;99.90
4429;DHT22;2227;47.810;8.810;2022-12-07T06:01:43;3.60;99.90
4429;DHT22;2227;47.810;8.810;2022-12-07T06:04:10;3.60;99.90
4429;DHT22;2227;47.810;8.810;2022-12-07T06:06:37;3.60;99.90
4429;DHT22;2227;47.810;8.810;2022-12-07T06:09:04;3.70;99.90
4429;DHT22;2227;47.810;8.810;2022-12-07T06:11:31;3.60;99.90
4429;DHT22;2227;47.810;8.810;2022-12-07T06:14:16;3.60;99.90
4429;DHT22;2227;47.810;8.810;2022-12-07T06:16:43;3.50;99.90
4429;DHT22;2227;47.810;8.810;2022-12-07T06:19:09;3.50;99.90
4429;DHT22;2227;47.810;8.810;2022-12-07T06:21:36;3.50;99.90
4429;DHT22;2227;47.810;8.810;2022-12-07T06:24:03;3.50;99.90
4429;DHT22;2227;47.810;8.810;2022-12-07T06:26:30;3.50;99.90
4429;DHT22;2227;47.810;8.810;2022-12-07T06:28:56;3.60;99.90
4429;DHT22;2227;47.810;8.810;2022-12-07T06:31:23;3.50;99.90
4429;DHT22;2227;47.810;8.810;2022-12-07T06:33:50;3.50;99.90
4429;DHT22;2227;47.810;8.810;2022-12-07T06:36:17;3.50;99.90
4429;DHT22;2227;47.810;8.810;2022-12-07T06:38:51;3.50;99.90
4429;DHT22;2227;47.810;8.810;2022-12-07T06:41:17;3.50;99.90
4429;DHT22;2227;47.810;8.810;2022-12-07T06:43:44;3.50;99.90
4429;DHT22;2227;47.810;8.810;2022-12-07T06:46:11;3.60;99.90
4429;DHT22;2227;47.810;8.810;2022-12-07T06:48:37;3.50;99.90
4429;DHT22;2227;47.810;8.810;2022-12-07T06:51:04;3.50;99.90
4429;DHT22;2227;47.810;8.810;2022-12-07T06:53:31;3.60;99.90
4429;DHT22;2227;47.810;8.810;2022-12-07T06:55:58;3.60;99.90
4429;DHT22;2227;47.810;8.810;2022-12-07T06:58:25;3.60;99.90
4429;DHT22;2227;47.810;8.810;2022-12-07T07:00:51;3.60;99.90
4429;DHT22;2227;47.810;8.810;2022-12-07T07:03:18;3.60;99.90
4429;DHT22;2227;47.810;8.810;2022-12-07T07:05:45;3.60;99.90
4429;DHT22;2227;47.810;8.810;2022-12-07T07:08:12;3.60;99.90
4429;DHT22;2227;47.810;8.810;2022-12-07T07:10:48;3.60;99.90
4429;DHT22;2227;47.810;8.810;2022-12-07T07:13:15;3.60;99.90
4429;DHT22;2227;47.810;8.810;2022-12-07T07:15:42;3.60;99.90
4429;DHT22;2227;47.810;8.810;2022-12-07T07:18:09;3.60;99.90
4429;DHT22;2227;47.810;8.810;2022-12-07T07:20:36;3.50;99.90
4429;DHT22;2227;47.810;8.810;2022-12-07T07:23:03;3.60;99.90
4429;DHT22;2227;47.810;8.810;2022-12-07T07:25:30;3.60;99.90
4429;DHT22;2227;47.810;8.810;2022-12-07T07:27:56;3.60;99.90
4429;DHT22;2227;47.810;8.810;2022-12-07T07:30:23;3.60;99.90
4429;DHT22;2227;47.810;8.810;2022-12-07T07:32:50;3.60;99.90
4429;DHT22;2227;47.810;8.810;2022-12-07T07:35:17;3.70;99.90
4429;DHT22;2227;47.810;8.810;2022-12-07T07:37:44;3.70;99.90
4429;DHT22;2227;47.810;8.810;2022-12-07T07:40:10;3.70;99.90
4429;DHT22;2227;47.810;8.810;2022-12-07T07:42:37;3.70;99.90
4429;DHT22;2227;47.810;8.810;2022-12-07T07:45:04;3.70;99.90
4429;DHT22;2227;47.810;8.810;2022-12-07T07:47:31;3.60;99.90
4429;DHT22;2227;47.810;8.810;2022-12-07T07:49:57;3.60;99.90
4429;DHT22;2227;47.810;8.810;2022-12-07T07:52:24;3.60;99.90
4429;DHT22;2227;47.810;8.810;2022-12-07T07:54:51;3.60;99.90
4429;DHT22;2227;47.810;8.810;2022-12-07T07:57:18;3.60;99.90
4429;DHT22;2227;47.810;8.810;2022-12-07T07:59:44;3.60;99.90
4429;DHT22;2227;47.810;8.810;2022-12-07T08:02:16;3.60;99.90
4429;DHT22;2227;47.810;8.810;2022-12-07T08:04:44;3.70;99.90
4429;DHT22;2227;47.810;8.810;2022-12-07T08:07:11;3.70;99.90
4429;DHT22;2227;47.810;8.810;2022-12-07T08:09:38;3.80;99.90
4429;DHT22;2227;47.810;8.810;2022-12-07T08:12:05;3.80;99.90
4429;DHT22;2227;47.810;8.810;2022-12-07T08:14:32;3.90;99.90
4429;DHT22;2227;47.810;8.810;2022-12-07T08:17:00;3.90;99.90
4429;DHT22;2227;47.810;8.810;2022-12-07T08:19:27;3.90;99.90
4429;DHT22;2227;47.810;8.810;2022-12-07T08:21:54;4.00;99.90
4429;DHT22;2227;47.810;8.810;2022-12-07T08:24:23;4.20;99.90
4429;DHT22;2227;47.810;8.810;2022-12-07T08:26:51;4.20;99.90
4429;DHT22;2227;47.810;8.810;2022-12-07T08:29:18;4.30;99.90
4429;DHT22;2227;47.810;8.810;2022-12-07T08:31:45;4.40;99.90
4429;DHT22;2227;47.810;8.810;2022-12-07T08:34:12;4.40;99.90
4429;DHT22;2227;47.810;8.810;2022-12-07T08:36:39;4.40;99.90
4429;DHT22;2227;47.810;8.810;2022-12-07T08:39:06;4.40;99.90
4429;DHT22;2227;47.810;8.810;2022-12-07T08:41:53;4.40;99.90
4429;DHT22;2227;47.810;8.810;2022-12-07T08:44:19;4.50;99.90
4429;DHT22;2227;47.810;8.810;2022-12-07T08:46:49;4.50;99.90
4429;DHT22;2227;47.810;8.810;2022-12-07T08:49:25;4.50;99.90
4429;DHT22;2227;47.810;8.810;2022-12-07T08:51:54;4.60;99.90
4429;DHT22;2227;47.810;8.810;2022-12-07T08:54:21;4.60;99.90
4429;DHT22;2227;47.810;8.810;2022-12-07T08:56:49;4.60;99.90
4429;DHT22;2227;47.810;8.810;2022-12-07T08:59:24;4.70;99.90
4429;DHT22;2227;47.810;8.810;2022-12-07T09:01:51;4.70;99.90
4429;DHT22;2227;47.810;8.810;2022-12-07T09:04:19;4.70;99.90
4429;DHT22;2227;47.810;8.810;2022-12-07T09:06:47;4.80;99.90
4429;DHT22;2227;47.810;8.810;2022-12-07T09:09:14;4.90;99.90
4429;DHT22;2227;47.810;8.810;2022-12-07T09:11:41;5.00;99.90
4429;DHT22;2227;47.810;8.810;2022-12-07T09:14:07;5.10;99.90
4429;DHT22;2227;47.810;8.810;2022-12-07T09:16:34;5.10;99.90
4429;DHT22;2227;47.810;8.810;2022-12-07T09:19:01;5.10;99.90
4429;DHT22;2227;47.810;8.810;2022-12-07T09:21:28;5.10;99.90
4429;DHT22;2227;47.810;8.810;2022-12-07T09:23:54;5.20;99.90
4429;DHT22;2227;47.810;8.810;2022-12-07T09:26:21;5.20;99.90
4429;DHT22;2227;47.810;8.810;2022-12-07T09:28:48;5.30;99.90
4429;DHT22;2227;47.810;8.810;2022-12-07T09:31:15;5.50;99.90
4429;DHT22;2227;47.810;8.810;2022-12-07T09:33:59;5.60;99.90
4429;DHT22;2227;47.810;8.810;2022-12-07T09:36:27;5.70;99.90
4429;DHT22;2227;47.810;8.810;2022-12-07T09:38:54;5.60;99.90
4429;DHT22;2227;47.810;8.810;2022-12-07T09:41:22;5.50;99.90
4429;DHT22;2227;47.810;8.810;2022-12-07T09:43:50;5.60;99.90
4429;DHT22;2227;47.810;8.810;2022-12-07T09:46:19;5.70;99.90
4429;DHT22;2227;47.810;8.810;2022-12-07T09:48:48;5.80;99.90
4429;DHT22;2227;47.810;8.810;2022-12-07T09:51:19;5.80;99.90
4429;DHT22;2227;47.810;8.810;2022-12-07T09:53:53;5.90;99.90
4429;DHT22;2227;47.810;8.810;2022-12-07T09:56:21;6.10;99.90
4429;DHT22;2227;47.810;8.810;2022-12-07T09:58:49;6.20;99.90
4429;DHT22;2227;47.810;8.810;2022-12-07T10:01:18;6.30;99.90
4429;DHT22;2227;47.810;8.810;2022-12-07T10:06:53;6.50;99.90
4429;DHT22;2227;47.810;8.810;2022-12-07T10:09:21;6.70;99.90
4429;DHT22;2227;47.810;8.810;2022-12-07T10:14:33;6.90;99.90
4429;DHT22;2227;47.810;8.810;2022-12-07T10:17:41;6.80;99.90
4429;DHT22;2227;47.810;8.810;2022-12-07T10:20:18;6.50;99.90
4429;DHT22;2227;47.810;8.810;2022-12-07T10:23:14;6.60;99.90
4429;DHT22;2227;47.810;8.810;2022-12-07T10:25:41;6.90;99.90
4429;DHT22;2227;47.810;8.810;2022-12-07T10:28:18;6.90;99.90
4429;DHT22;2227;47.810;8.810;2022-12-07T10:30:57;7.00;99.90
4429;DHT22;2227;47.810;8.810;2022-12-07T10:36:17;7.30;99.90
4429;DHT22;2227;47.810;8.810;2022-12-07T10:38:50;7.30;99.90
4429;DHT22;2227;47.810;8.810;2022-12-07T10:41:17;7.20;99.90
4429;DHT22;2227;47.810;8.810;2022-12-07T10:43:51;7.20;99.90
4429;DHT22;2227;47.810;8.810;2022-12-07T11:06:38;7.80;99.90
4429;DHT22;2227;47.810;8.810;2022-12-07T11:09:26;7.80;99.90
4429;DHT22;2227;47.810;8.810;2022-12-07T11:20:41;7.80;99.90
4429;DHT22;2227;47.810;8.810;2022-12-07T11:36:53;7.20;99.90
4429;DHT22;2227;47.810;8.810;2022-12-07T11:39:38;7.40;99.90
4429;DHT22;2227;47.810;8.810;2022-12-07T11:42:22;7.70;99.90
4429;DHT22;2227;47.810;8.810;2022-12-07T11:44:57;7.90;99.90
4429;DHT22;2227;47.810;8.810;2022-12-07T11:47:43;8.10;99.90
4429;DHT22;2227;47.810;8.810;2022-12-07T11:50:27;8.20;99.90
4429;DHT22;2227;47.810;8.810;2022-12-07T11:53:03;8.30;99.90
4429;DHT22;2227;47.810;8.810;2022-12-07T11:55:43;8.60;99.90
4429;DHT22;2227;47.810;8.810;2022-12-07T12:01:08;8.70;99.90
4429;DHT22;2227;47.810;8.810;2022-12-07T12:03:40;8.60;99.90
4429;DHT22;2227;47.810;8.810;2022-12-07T12:06:15;8.60;99.90
4429;DHT22;2227;47.810;8.810;2022-12-07T12:12:07;8.70;99.90
4429;DHT22;2227;47.810;8.810;2022-12-07T12:25:42;9.20;99.90
4429;DHT22;2227;47.810;8.810;2022-12-07T12:33:59;8.80;99.90
4429;DHT22;2227;47.810;8.810;2022-12-07T12:46:54;8.90;99.90
4429;DHT22;2227;47.810;8.810;2022-12-07T12:49:30;8.60;99.90
4429;DHT22;2227;47.810;8.810;2022-12-07T12:55:11;8.40;99.90
4429;DHT22;2227;47.810;8.810;2022-12-07T12:57:38;8.40;99.90
4429;DHT22;2227;47.810;8.810;2022-12-07T13:00:20;8.30;99.90
4429;DHT22;2227;47.810;8.810;2022-12-07T13:02:55;8.20;99.90
4429;DHT22;2227;47.810;8.810;2022-12-07T13:05:30;8.10;99.90
4429;DHT22;2227;47.810;8.810;2022-12-07T13:07:58;8.20;99.90
4429;DHT22;2227;47.810;8.810;2022-12-07T13:15:33;8.20;99.90
4429;DHT22;2227;47.810;8.810;2022-12-07T13:18:02;7.80;99.90
4429;DHT22;2227;47.810;8.810;2022-12-07T13:20:56;7.60;99.90
4429;DHT22;2227;47.810;8.810;2022-12-07T13:23:35;7.70;99.90
4429;DHT22;2227;47.810;8.810;2022-12-07T13:29:19;7.40;99.90
4429;DHT22;2227;47.810;8.810;2022-12-07T13:31:47;7.40;99.90
4429;DHT22;2227;47.810;8.810;2022-12-07T13:34:35;7.30;99.90
4429;DHT22;2227;47.810;8.810;2022-12-07T13:40:22;7.10;99.90
4429;DHT22;2227;47.810;8.810;2022-12-07T13:43:11;7.30;99.90
4429;DHT22;2227;47.810;8.810;2022-12-07T13:45:39;7.30;99.90
4429;DHT22;2227;47.810;8.810;2022-12-07T13:48:43;7.30;99.90
4429;DHT22;2227;47.810;8.810;2022-12-07T13:51:18;7.40;99.90
4429;DHT22;2227;47.810;8.810;2022-12-07T13:53:51;7.40;99.90
4429;DHT22;2227;47.810;8.810;2022-12-07T13:56:18;7.60;99.90
4429;DHT22;2227;47.810;8.810;2022-12-07T13:58:44;7.60;99.90
4429;DHT22;2227;47.810;8.810;2022-12-07T14:01:11;7.60;99.90
4429;DHT22;2227;47.810;8.810;2022-12-07T14:03:39;7.70;99.90
4429;DHT22;2227;47.810;8.810;2022-12-07T14:06:26;7.60;99.90
4429;DHT22;2227;47.810;8.810;2022-12-07T14:09:18;7.40;99.90
4429;DHT22;2227;47.810;8.810;2022-12-07T14:11:48;7.20;99.90
4429;DHT22;2227;47.810;8.810;2022-12-07T14:14:22;7.10;99.90
4429;DHT22;2227;47.810;8.810;2022-12-07T14:17:02;7.00;99.90
4429;DHT22;2227;47.810;8.810;2022-12-07T14:22:25;6.90;99.90
4429;DHT22;2227;47.810;8.810;2022-12-07T14:25:20;6.80;99.90
4429;DHT22;2227;47.810;8.810;2022-12-07T14:27:49;6.70;99.90
4429;DHT22;2227;47.810;8.810;2022-12-07T14:30:18;6.70;99.90
4429;DHT22;2227;47.810;8.810;2022-12-07T14:32:48;6.60;99.90
4429;DHT22;2227;47.810;8.810;2022-12-07T14:35:17;6.50;99.90
4429;DHT22;2227;47.810;8.810;2022-12-07T14:37:46;6.50;99.90
4429;DHT22;2227;47.810;8.810;2022-12-07T14:40:22;6.40;99.90
4429;DHT22;2227;47.810;8.810;2022-12-07T14:42:52;6.20;99.90
4429;DHT22;2227;47.810;8.810;2022-12-07T14:45:22;6.10;99.90
4429;DHT22;2227;47.810;8.810;2022-12-07T14:47:49;6.00;99.90
4429;DHT22;2227;47.810;8.810;2022-12-07T14:50:38;6.00;99.90
4429;DHT22;2227;47.810;8.810;2022-12-07T14:53:30;5.90;99.90
4429;DHT22;2227;47.810;8.810;2022-12-07T14:55:59;5.80;99.90
4429;DHT22;2227;47.810;8.810;2022-12-07T14:58:26;5.70;99.90
4429;DHT22;2227;47.810;8.810;2022-12-07T15:00:53;5.70;99.90
4429;DHT22;2227;47.810;8.810;2022-12-07T15:03:20;5.60;99.90
4429;DHT22;2227;47.810;8.810;2022-12-07T15:05:46;5.50;99.90
4429;DHT22;2227;47.810;8.810;2022-12-07T15:08:13;5.50;99.90
4429;DHT22;2227;47.810;8.810;2022-12-07T15:10:40;5.50;99.90
4429;DHT22;2227;47.810;8.810;2022-12-07T15:13:08;5.40;99.90
4429;DHT22;2227;47.810;8.810;2022-12-07T15:15:54;5.40;99.90
4429;DHT22;2227;47.810;8.810;2022-12-07T15:18:22;5.20;99.90
4429;DHT22;2227;47.810;8.810;2022-12-07T15:20:50;5.10;99.90
4429;DHT22;2227;47.810;8.810;2022-12-07T15:23:18;5.00;99.90
4429;DHT22;2227;47.810;8.810;2022-12-07T15:25:46;4.80;99.90
4429;DHT22;2227;47.810;8.810;2022-12-07T15:28:14;4.80;99.90
4429;DHT22;2227;47.810;8.810;2022-12-07T15:30:42;4.60;99.90
4429;DHT22;2227;47.810;8.810;2022-12-07T15:33:10;4.50;99.90
4429;DHT22;2227;47.810;8.810;2022-12-07T15:35:41;4.40;99.90
4429;DHT22;2227;47.810;8.810;2022-12-07T15:38:08;4.20;99.90
4429;DHT22;2227;47.810;8.810;2022-12-07T15:40:35;4.10;99.90
4429;DHT22;2227;47.810;8.810;2022-12-07T15:43:03;3.90;99.90
4429;DHT22;2227;47.810;8.810;2022-12-07T15:45:30;3.80;99.90
4429;DHT22;2227;47.810;8.810;2022-12-07T15:47:56;3.80;99.90
4429;DHT22;2227;47.810;8.810;2022-12-07T15:50:43;3.70;99.90
4429;DHT22;2227;47.810;8.810;2022-12-07T15:53:09;3.60;99.90
4429;DHT22;2227;47.810;8.810;2022-12-07T15:55:39;3.60;99.90
4429;DHT22;2227;47.810;8.810;2022-12-07T15:58:06;3.50;99.90
4429;DHT22;2227;47.810;8.810;2022-12-07T16:00:33;3.40;99.90
4429;DHT22;2227;47.810;8.810;2022-12-07T16:03:00;3.30;99.90
4429;DHT22;2227;47.810;8.810;2022-12-07T16:05:27;3.20;99.90
4429;DHT22;2227;47.810;8.810;2022-12-07T16:07:53;3.10;99.90
4429;DHT22;2227;47.810;8.810;2022-12-07T16:10:20;3.00;99.90
4429;DHT22;2227;47.810;8.810;2022-12-07T16:12:47;3.10;99.90
4429;DHT22;2227;47.810;8.810;2022-12-07T16:15:13;3.10;99.90
4429;DHT22;2227;47.810;8.810;2022-12-07T16:17:42;3.10;99.90
4429;DHT22;2227;47.810;8.810;2022-12-07T16:20:09;3.10;99.90
4429;DHT22;2227;47.810;8.810;2022-12-07T16:22:36;3.00;99.90
4429;DHT22;2227;47.810;8.810;2022-12-07T16:25:03;2.90;99.90
4429;DHT22;2227;47.810;8.810;2022-12-07T16:27:30;2.80;99.90
4429;DHT22;2227;47.810;8.810;2022-12-07T16:29:57;2.70;99.90
4429;DHT22;2227;47.810;8.810;2022-12-07T16:32:24;2.60;99.90
4429;DHT22;2227;47.810;8.810;2022-12-07T16:34:50;2.60;99.90
4429;DHT22;2227;47.810;8.810;2022-12-07T16:37:17;2.60;99.90
4429;DHT22;2227;47.810;8.810;2022-12-07T16:39:43;2.60;99.90
4429;DHT22;2227;47.810;8.810;2022-12-07T16:42:10;2.60;99.90
4429;DHT22;2227;47.810;8.810;2022-12-07T16:44:37;2.60;99.90
4429;DHT22;2227;47.810;8.810;2022-12-07T16:47:04;2.60;99.90
4429;DHT22;2227;47.810;8.810;2022-12-07T16:49:30;2.60;99.90
4429;DHT22;2227;47.810;8.810;2022-12-07T16:51:57;2.40;99.90
4429;DHT22;2227;47.810;8.810;2022-12-07T16:54:44;2.40;99.90
4429;DHT22;2227;47.810;8.810;2022-12-07T16:57:11;2.40;99.90
4429;DHT22;2227;47.810;8.810;2022-12-07T16:59:45;2.50;99.90
4429;DHT22;2227;47.810;8.810;2022-12-07T17:02:12;2.50;99.90
4429;DHT22;2227;47.810;8.810;2022-12-07T17:04:39;2.50;99.90
4429;DHT22;2227;47.810;8.810;2022-12-07T17:07:09;2.50;99.90
4429;DHT22;2227;47.810;8.810;2022-12-07T17:09:36;2.60;99.90
4429;DHT22;2227;47.810;8.810;2022-12-07T17:12:03;2.70;99.90
4429;DHT22;2227;47.810;8.810;2022-12-07T17:14:32;2.60;99.90
4429;DHT22;2227;47.810;8.810;2022-12-07T17:17:17;2.60;99.90
4429;DHT22;2227;47.810;8.810;2022-12-07T17:19:44;2.50;99.90
4429;DHT22;2227;47.810;8.810;2022-12-07T17:22:11;2.40;99.90
4429;DHT22;2227;47.810;8.810;2022-12-07T17:24:39;2.30;99.90
4429;DHT22;2227;47.810;8.810;2022-12-07T17:27:06;2.40;99.90
4429;DHT22;2227;47.810;8.810;2022-12-07T17:29:32;2.30;99.90
4429;DHT22;2227;47.810;8.810;2022-12-07T17:31:59;2.30;99.90
4429;DHT22;2227;47.810;8.810;2022-12-07T17:34:26;2.30;99.90
4429;DHT22;2227;47.810;8.810;2022-12-07T17:36:52;2.20;99.90
4429;DHT22;2227;47.810;8.810;2022-12-07T17:39:21;2.20;99.90
4429;DHT22;2227;47.810;8.810;2022-12-07T17:41:47;2.20;99.90
4429;DHT22;2227;47.810;8.810;2022-12-07T17:44:33;2.10;99.90
4429;DHT22;2227;47.810;8.810;2022-12-07T17:47:00;2.00;99.90
4429;DHT22;2227;47.810;8.810;2022-12-07T17:49:29;2.00;99.90
4429;DHT22;2227;47.810;8.810;2022-12-07T17:51:56;1.90;99.90
4429;DHT22;2227;47.810;8.810;2022-12-07T17:54:41;2.00;99.90
4429;DHT22;2227;47.810;8.810;2022-12-07T17:57:08;2.00;99.90
4429;DHT22;2227;47.810;8.810;2022-12-07T17:59:35;2.00;99.90
4429;DHT22;2227;47.810;8.810;2022-12-07T18:02:01;1.90;99.90
4429;DHT22;2227;47.810;8.810;2022-12-07T18:04:28;2.00;99.90
4429;DHT22;2227;47.810;8.810;2022-12-07T18:06:55;2.00;99.90
4429;DHT22;2227;47.810;8.810;2022-12-07T18:09:22;2.00;99.90
4429;DHT22;2227;47.810;8.810;2022-12-07T18:11:49;2.00;99.90
4429;DHT22;2227;47.810;8.810;2022-12-07T18:14:16;2.10;99.90
4429;DHT22;2227;47.810;8.810;2022-12-07T18:16:43;2.10;99.90
4429;DHT22;2227;47.810;8.810;2022-12-07T18:19:11;2.10;99.90
4429;DHT22;2227;47.810;8.810;2022-12-07T18:21:40;2.10;99.90
4429;DHT22;2227;47.810;8.810;2022-12-07T18:24:11;2.00;99.90
4429;DHT22;2227;47.810;8.810;2022-12-07T18:26:39;2.10;99.90
4429;DHT22;2227;47.810;8.810;2022-12-07T18:29:07;2.00;99.90
4429;DHT22;2227;47.810;8.810;2022-12-07T18:31:34;2.00;99.90
4429;DHT22;2227;47.810;8.810;2022-12-07T18:34:04;2.00;99.90
4429;DHT22;2227;47.810;8.810;2022-12-07T18:36:34;2.10;99.90
4429;DHT22;2227;47.810;8.810;2022-12-07T18:39:06;2.10;99.90
4429;DHT22;2227;47.810;8.810;2022-12-07T18:41:33;2.10;99.90
4429;DHT22;2227;47.810;8.810;2022-12-07T18:44:01;2.20;99.90
4429;DHT22;2227;47.810;8.810;2022-12-07T18:46:29;2.10;99.90
4429;DHT22;2227;47.810;8.810;2022-12-07T18:48:55;2.10;99.90
4429;DHT22;2227;47.810;8.810;2022-12-07T18:51:22;2.10;99.90
4429;DHT22;2227;47.810;8.810;2022-12-07T18:53:57;2.20;99.90
4429;DHT22;2227;47.810;8.810;2022-12-07T18:56:25;2.20;99.90
4429;DHT22;2227;47.810;8.810;2022-12-07T18:58:57;2.20;99.90
4429;DHT22;2227;47.810;8.810;2022-12-07T19:01:46;2.20;99.90
4429;DHT22;2227;47.810;8.810;2022-12-07T19:04:13;2.20;99.90
4429;DHT22;2227;47.810;8.810;2022-12-07T19:06:42;2.20;99.90
4429;DHT22;2227;47.810;8.810;2022-12-07T19:09:09;2.20;99.90
4429;DHT22;2227;47.810;8.810;2022-12-07T19:11:37;2.20;99.90
4429;DHT22;2227;47.810;8.810;2022-12-07T19:14:17;2.20;99.90
4429;DHT22;2227;47.810;8.810;2022-12-07T19:16:45;2.30;99.90
4429;DHT22;2227;47.810;8.810;2022-12-07T19:19:20;2.30;99.90
4429;DHT22;2227;47.810;8.810;2022-12-07T19:21:48;2.30;99.90
4429;DHT22;2227;47.810;8.810;2022-12-07T19:24:15;2.30;99.90
4429;DHT22;2227;47.810;8.810;2022-12-07T19:26:49;2.30;99.90
4429;DHT22;2227;47.810;8.810;2022-12-07T19:29:16;2.30;99.90
4429;DHT22;2227;47.810;8.810;2022-12-07T19:31:43;2.30;99.90
4429;DHT22;2227;47.810;8.810;2022-12-07T19:34:11;2.30;99.90
4429;DHT22;2227;47.810;8.810;2022-12-07T19:36:38;2.30;99.90
4429;DHT22;2227;47.810;8.810;2022-12-07T19:39:05;2.30;99.90
4429;DHT22;2227;47.810;8.810;2022-12-07T19:41:40;2.30;99.90
4429;DHT22;2227;47.810;8.810;2022-12-07T19:44:17;2.20;99.90
4429;DHT22;2227;47.810;8.810;2022-12-07T19:46:46;2.30;99.90
4429;DHT22;2227;47.810;8.810;2022-12-07T19:49:15;2.30;99.90
4429;DHT22;2227;47.810;8.810;2022-12-07T19:51:43;2.30;99.90
4429;DHT22;2227;47.810;8.810;2022-12-07T19:54:12;2.30;99.90
4429;DHT22;2227;47.810;8.810;2022-12-07T19:56:41;2.30;99.90
4429;DHT22;2227;47.810;8.810;2022-12-07T19:59:08;2.30;99.90
4429;DHT22;2227;47.810;8.810;2022-12-07T20:01:35;2.30;99.90
4429;DHT22;2227;47.810;8.810;2022-12-07T20:04:14;2.30;99.90
4429;DHT22;2227;47.810;8.810;2022-12-07T20:06:49;2.40;99.90
4429;DHT22;2227;47.810;8.810;2022-12-07T20:09:17;2.40;99.90
4429;DHT22;2227;47.810;8.810;2022-12-07T20:11:44;2.40;99.90
4429;DHT22;2227;47.810;8.810;2022-12-07T20:14:30;2.50;99.90
4429;DHT22;2227;47.810;8.810;2022-12-07T20:16:57;2.50;99.90
4429;DHT22;2227;47.810;8.810;2022-12-07T20:19:24;2.50;99.90
4429;DHT22;2227;47.810;8.810;2022-12-07T20:21:51;2.60;99.90
4429;DHT22;2227;47.810;8.810;2022-12-07T20:24:21;2.60;99.90
4429;DHT22;2227;47.810;8.810;2022-12-07T20:26:49;2.60;99.90
4429;DHT22;2227;47.810;8.810;2022-12-07T20:29:20;2.70;99.90
4429;DHT22;2227;47.810;8.810;2022-12-07T20:31:48;2.70;99.90
4429;DHT22;2227;47.810;8.810;2022-12-07T20:34:15;2.70;99.90
4429;DHT22;2227;47.810;8.810;2022-12-07T20:36:43;2.70;99.90
4429;DHT22;2227;47.810;8.810;2022-12-07T20:39:10;2.80;99.90
4429;DHT22;2227;47.810;8.810;2022-12-07T20:41:38;2.80;99.90
4429;DHT22;2227;47.810;8.810;2022-12-07T20:44:24;2.80;99.90
4429;DHT22;2227;47.810;8.810;2022-12-07T20:46:50;2.90;99.90
4429;DHT22;2227;47.810;8.810;2022-12-07T20:49:17;2.90;99.90
4429;DHT22;2227;47.810;8.810;2022-12-07T20:51:44;2.90;99.90
4429;DHT22;2227;47.810;8.810;2022-12-07T20:54:12;3.00;99.90
4429;DHT22;2227;47.810;8.810;2022-12-07T20:56:40;3.00;99.90
4429;DHT22;2227;47.810;8.810;2022-12-07T20:59:09;2.80;99.90
4429;DHT22;2227;47.810;8.810;2022-12-07T21:01:36;2.70;99.90
4429;DHT22;2227;47.810;8.810;2022-12-07T21:04:03;2.60;99.90
4429;DHT22;2227;47.810;8.810;2022-12-07T21:06:30;2.60;99.90
4429;DHT22;2227;47.810;8.810;2022-12-07T21:08:58;2.60;99.90
4429;DHT22;2227;47.810;8.810;2022-12-07T21:11:28;2.60;99.90
4429;DHT22;2227;47.810;8.810;2022-12-07T21:13:54;2.50;99.90
4429;DHT22;2227;47.810;8.810;2022-12-07T21:16:24;2.50;99.90
4429;DHT22;2227;47.810;8.810;2022-12-07T21:18:53;2.60;99.90
4429;DHT22;2227;47.810;8.810;2022-12-07T21:21:20;2.50;99.90
4429;DHT22;2227;47.810;8.810;2022-12-07T21:23:49;2.50;99.90
4429;DHT22;2227;47.810;8.810;2022-12-07T21:26:18;2.40;99.90
4429;DHT22;2227;47.810;8.810;2022-12-07T21:28:46;2.50;99.90
4429;DHT22;2227;47.810;8.810;2022-12-07T21:31:13;2.70;99.90
4429;DHT22;2227;47.810;8.810;2022-12-07T21:33:41;2.80;99.90
4429;DHT22;2227;47.810;8.810;2022-12-07T21:36:15;2.90;99.90
4429;DHT22;2227;47.810;8.810;2022-12-07T21:38:42;3.00;99.90
4429;DHT22;2227;47.810;8.810;2022-12-07T21:41:11;3.00;99.90
4429;DHT22;2227;47.810;8.810;2022-12-07T21:43:38;3.00;99.90
4429;DHT22;2227;47.810;8.810;2022-12-07T21:46:05;3.00;99.90
4429;DHT22;2227;47.810;8.810;2022-12-07T21:48:32;3.10;99.90
4429;DHT22;2227;47.810;8.810;2022-12-07T21:51:05;3.10;99.90
4429;DHT22;2227;47.810;8.810;2022-12-07T21:53:33;3.10;99.90
4429;DHT22;2227;47.810;8.810;2022-12-07T21:56:18;3.10;99.90
4429;DHT22;2227;47.810;8.810;2022-12-07T21:58:45;3.10;99.90
4429;DHT22;2227;47.810;8.810;2022-12-07T22:01:17;3.10;99.90
4429;DHT22;2227;47.810;8.810;2022-12-07T22:03:45;3.00;99.90
4429;DHT22;2227;47.810;8.810;2022-12-07T22:06:13;3.10;99.90
4429;DHT22;2227;47.810;8.810;2022-12-07T22:08:40;2.90;99.90
4429;DHT22;2227;47.810;8.810;2022-12-07T22:11:07;2.50;99.90
4429;DHT22;2227;47.810;8.810;2022-12-07T22:13:36;2.40;99.90
4429;DHT22;2227;47.810;8.810;2022-12-07T22:16:22;2.40;99.90
4429;DHT22;2227;47.810;8.810;2022-12-07T22:18:49;2.30;99.90
4429;DHT22;2227;47.810;8.810;2022-12-07T22:21:16;2.20;99.90
4429;DHT22;2227;47.810;8.810;2022-12-07T22:23:43;2.30;99.90
4429;DHT22;2227;47.810;8.810;2022-12-07T22:26:12;2.40;99.90
4429;DHT22;2227;47.810;8.810;2022-12-07T22:28:44;2.40;99.90
4429;DHT22;2227;47.810;8.810;2022-12-07T22:31:15;2.40;99.90
4429;DHT22;2227;47.810;8.810;2022-12-07T22:33:42;2.40;99.90
4429;DHT22;2227;47.810;8.810;2022-12-07T22:36:09;2.40;99.90
4429;DHT22;2227;47.810;8.810;2022-12-07T22:38:38;2.40;99.90
4429;DHT22;2227;47.810;8.810;2022-12-07T22:41:23;2.50;99.90
4429;DHT22;2227;47.810;8.810;2022-12-07T22:43:51;2.40;99.90
4429;DHT22;2227;47.810;8.810;2022-12-07T22:46:17;2.40;99.90
4429;DHT22;2227;47.810;8.810;2022-12-07T22:48:44;2.40;99.90
4429;DHT22;2227;47.810;8.810;2022-12-07T22:51:38;2.40;99.90
4429;DHT22;2227;47.810;8.810;2022-12-07T22:54:07;2.50;99.90
4429;DHT22;2227;47.810;8.810;2022-12-07T22:56:36;2.50;99.90
4429;DHT22;2227;47.810;8.810;2022-12-07T22:59:04;2.50;99.90
4429;DHT22;2227;47.810;8.810;2022-12-07T23:01:34;2.50;99.90
4429;DHT22;2227;47.810;8.810;2022-12-07T23:04:01;2.40;99.90